Time;durP1;ratioP1;P1;durP2;ratioP2;P2;SDS_P1;SDS_P2;PMS_P1;PMS_P2;Temp;Humidity;BMP_temperature;BMP_pressure;BME280_temperature;BME280_humidity;BME280_pressure;Samples;Min_cycle;Max_cycle;Signal;HPM_P1;HPM_P2
2023/12/21 00:00:16;;;;;;;818.72;753.50;;;9.30;99.90;;;;;;6298370;22;20085;-83
2023/12/21 00:02:42;;;;;;;864.08;789.97;;;9.20;99.90;;;;;;6298938;22;20015;-83
2023/12/21 00:05:07;;;;;;;838.65;766.22;;;9.20;99.90;;;;;;6296860;22;20352;-82
2023/12/21 00:07:33;;;;;;;876.47;802.85;;;9.20;99.90;;;;;;6272977;22;20019;-83
2023/12/21 00:09:59;;;;;;;850.05;779.20;;;9.20;99.90;;;;;;6298422;22;20015;-82
2023/12/21 00:12:25;;;;;;;767.42;705.55;;;9.20;99.90;;;;;;6298438;22;20015;-83
2023/12/21 00:14:51;;;;;;;859.35;784.85;;;9.30;99.90;;;;;;6299159;22;20015;-83
2023/12/21 00:17:16;;;;;;;834.17;766.08;;;9.30;99.90;;;;;;6298129;22;20091;-83
2023/12/21 00:19:42;;;;;;;787.28;724.17;;;9.30;99.90;;;;;;6270809;22;20080;-82
2023/12/21 00:22:08;;;;;;;917.90;838.42;;;9.30;99.90;;;;;;6298627;22;20443;-82
2023/12/21 00:24:33;;;;;;;715.72;661.63;;;9.30;99.90;;;;;;6272510;22;20140;-82
2023/12/21 00:26:59;;;;;;;931.65;842.53;;;9.30;99.90;;;;;;6272793;22;20026;-82
2023/12/21 00:29:25;;;;;;;827.17;760.00;;;9.30;99.90;;;;;;6298011;22;20532;-82
2023/12/21 00:31:51;;;;;;;819.88;752.70;;;9.30;99.90;;;;;;6273161;22;20071;-83
2023/12/21 00:34:16;;;;;;;762.33;703.47;;;9.30;99.90;;;;;;6297505;22;20090;-83
2023/12/21 00:36:45;;;;;;;898.30;821.53;;;9.20;99.90;;;;;;6297658;22;20473;-83
2023/12/21 00:39:10;;;;;;;783.25;720.40;;;9.20;99.90;;;;;;6299030;22;20019;-82
2023/12/21 00:41:36;;;;;;;801.80;738.30;;;9.20;99.90;;;;;;6297297;22;20017;-82
2023/12/21 00:44:02;;;;;;;785.03;723.67;;;9.30;99.90;;;;;;6298914;22;20027;-82
2023/12/21 00:46:28;;;;;;;820.63;755.10;;;9.30;99.90;;;;;;6271712;22;20164;-83
2023/12/21 00:48:53;;;;;;;819.80;753.20;;;9.30;99.90;;;;;;6298126;22;20158;-82
2023/12/21 00:51:19;;;;;;;763.85;704.45;;;9.30;99.90;;;;;;6297335;22;20023;-83
2023/12/21 00:53:45;;;;;;;809.22;743.42;;;9.30;99.90;;;;;;6297188;22;20084;-82
2023/12/21 00:56:10;;;;;;;843.65;772.95;;;9.30;99.90;;;;;;6298033;22;20027;-82
2023/12/21 00:58:36;;;;;;;776.45;715.83;;;9.30;99.90;;;;;;6298055;22;20007;-82
2023/12/21 01:01:02;;;;;;;738.53;682.65;;;9.30;99.90;;;;;;6297800;22;20026;-83
2023/12/21 01:03:28;;;;;;;780.90;719.53;;;9.30;99.90;;;;;;6272240;22;20047;-83
2023/12/21 01:05:53;;;;;;;814.10;748.33;;;9.30;99.90;;;;;;6297154;22;20015;-83
2023/12/21 01:08:19;;;;;;;804.97;741.42;;;9.30;99.90;;;;;;6297480;22;20019;-82
2023/12/21 01:10:45;;;;;;;794.83;730.53;;;9.30;99.90;;;;;;6297917;22;20019;-83
2023/12/21 01:13:11;;;;;;;851.20;782.20;;;9.30;99.90;;;;;;6298647;22;20432;-82
2023/12/21 01:15:37;;;;;;;845.50;774.45;;;9.30;99.90;;;;;;6297318;22;20076;-83
2023/12/21 01:18:02;;;;;;;742.85;685.80;;;9.20;99.90;;;;;;6298196;22;20141;-82
2023/12/21 01:20:28;;;;;;;806.60;743.45;;;9.30;99.90;;;;;;6296630;22;20080;-83
2023/12/21 01:22:54;;;;;;;764.00;704.72;;;9.20;99.90;;;;;;6271683;22;20023;-83
2023/12/21 01:25:19;;;;;;;907.33;825.15;;;9.20;99.90;;;;;;6298468;22;20431;-82
2023/12/21 01:27:45;;;;;;;890.88;812.60;;;9.20;99.90;;;;;;6298354;22;20382;-83
2023/12/21 01:30:11;;;;;;;793.97;729.78;;;9.20;99.90;;;;;;6296726;22;20497;-82
2023/12/21 01:32:37;;;;;;;792.05;729.17;;;9.20;99.90;;;;;;6298394;22;20080;-83
2023/12/21 01:35:02;;;;;;;860.85;788.65;;;9.20;99.90;;;;;;6271675;22;20014;-84
2023/12/21 01:37:28;;;;;;;830.20;761.08;;;9.10;99.90;;;;;;6271332;22;20023;-83
2023/12/21 01:39:54;;;;;;;903.08;823.60;;;9.10;99.90;;;;;;6298691;22;20019;-83
2023/12/21 01:42:20;;;;;;;868.65;794.50;;;9.10;99.90;;;;;;6298020;22;20015;-83
2023/12/21 01:44:45;;;;;;;778.22;716.85;;;9.10;99.90;;;;;;6297043;22;20027;-83
2023/12/21 01:47:11;;;;;;;817.80;749.63;;;9.10;99.90;;;;;;6274023;22;20519;-84
2023/12/21 01:49:37;;;;;;;775.35;715.15;;;9.10;99.90;;;;;;6273133;22;20051;-83
2023/12/21 01:52:05;;;;;;;792.75;728.67;;;9.10;99.90;;;;;;6299938;22;20012;-83
2023/12/21 01:54:31;;;;;;;987.33;891.50;;;9.10;99.90;;;;;;6299083;22;20455;-83
2023/12/21 01:56:57;;;;;;;942.22;857.33;;;9.00;99.90;;;;;;6274824;22;20086;-83
2023/12/21 01:59:23;;;;;;;863.40;793.28;;;9.00;99.90;;;;;;6298604;22;20152;-84
2023/12/21 02:01:48;;;;;;;817.70;753.08;;;9.00;99.90;;;;;;6299851;22;20011;-83
2023/12/21 02:04:14;;;;;;;870.53;800.20;;;9.00;99.90;;;;;;6299082;22;20339;-83
2023/12/21 02:06:40;;;;;;;848.15;778.03;;;9.00;99.90;;;;;;6272698;22;20019;-83
2023/12/21 02:09:07;;;;;;;880.03;806.17;;;9.00;99.90;;;;;;6274860;22;20025;-84
2023/12/21 02:11:32;;;;;;;902.30;821.88;;;9.00;99.90;;;;;;6297820;22;20023;-87
2023/12/21 02:13:58;;;;;;;883.78;808.72;;;9.00;99.90;;;;;;6300722;22;20073;-83
2023/12/21 02:16:33;;;;;;;933.00;847.83;;;8.90;99.90;;;;;;6299450;22;20343;-83
2023/12/21 02:18:59;;;;;;;987.40;890.15;;;9.00;99.90;;;;;;6273687;22;20076;-83
2023/12/21 02:21:26;;;;;;;975.97;887.38;;;9.00;99.90;;;;;;6298574;22;20304;-84
2023/12/21 02:23:54;;;;;;;1022.95;919.60;;;8.90;99.90;;;;;;6300184;22;20015;-83
2023/12/21 02:26:19;;;;;;;911.00;830.33;;;9.00;99.90;;;;;;6298693;22;20030;-84
2023/12/21 02:28:45;;;;;;;902.88;825.78;;;8.90;99.90;;;;;;6299522;22;20015;-83
2023/12/21 02:31:11;;;;;;;918.08;836.92;;;9.00;99.90;;;;;;6274076;22;20027;-83
2023/12/21 02:33:36;;;;;;;922.40;840.92;;;9.00;99.90;;;;;;6298520;22;20015;-83
2023/12/21 02:36:03;;;;;;;857.97;786.45;;;9.00;99.90;;;;;;6298858;22;20106;-84
2023/12/21 02:38:28;;;;;;;853.58;783.63;;;8.90;99.90;;;;;;6273759;22;20015;-83
2023/12/21 02:40:54;;;;;;;868.75;792.58;;;9.00;99.90;;;;;;6300879;22;20023;-83
2023/12/21 02:43:20;;;;;;;948.72;861.38;;;9.00;99.90;;;;;;6274071;22;20474;-83
2023/12/21 02:45:45;;;;;;;1050.63;942.95;;;8.90;99.90;;;;;;6298678;22;20030;-82
2023/12/21 02:48:11;;;;;;;906.50;827.33;;;8.90;99.90;;;;;;6273214;22;20007;-83
2023/12/21 02:50:37;;;;;;;1002.33;900.22;;;9.00;99.90;;;;;;6298336;22;20081;-83
2023/12/21 02:53:02;;;;;;;973.58;882.55;;;9.10;99.90;;;;;;6273737;22;20015;-83
2023/12/21 02:55:29;;;;;;;950.25;860.10;;;9.00;99.90;;;;;;6298725;22;20019;-83
2023/12/21 02:57:55;;;;;;;1005.85;901.13;;;9.00;99.90;;;;;;6299330;22;20030;-82
2023/12/21 03:00:20;;;;;;;882.33;807.08;;;9.00;99.90;;;;;;6302078;22;20019;-82
2023/12/21 03:02:46;;;;;;;857.78;787.58;;;9.10;99.90;;;;;;6277364;22;20018;-83
2023/12/21 03:05:12;;;;;;;961.10;869.85;;;9.10;99.90;;;;;;6301472;22;20019;-83
2023/12/21 03:07:37;;;;;;;995.28;894.35;;;9.10;99.90;;;;;;6302203;22;20081;-83
2023/12/21 03:10:04;;;;;;;947.10;860.65;;;9.10;99.90;;;;;;6302960;22;20010;-83
2023/12/21 03:12:29;;;;;;;983.50;884.72;;;9.10;99.90;;;;;;6302914;22;20017;-84
2023/12/21 03:14:55;;;;;;;1044.25;937.88;;;9.10;99.90;;;;;;6302411;22;20101;-83
2023/12/21 03:17:21;;;;;;;996.53;901.70;;;9.00;99.90;;;;;;6302453;22;20030;-83
2023/12/21 03:19:46;;;;;;;930.05;846.60;;;9.10;99.90;;;;;;6301782;22;20443;-83
2023/12/21 03:22:12;;;;;;;968.33;879.33;;;9.10;99.90;;;;;;6301818;22;20028;-83
2023/12/21 03:24:39;;;;;;;965.47;876.35;;;9.00;99.90;;;;;;6302972;22;20022;-82
2023/12/21 03:27:05;;;;;;;886.28;810.85;;;9.00;99.90;;;;;;6303697;22;20017;-83
2023/12/21 03:29:31;;;;;;;882.90;809.58;;;9.10;99.90;;;;;;6301264;22;20058;-83
2023/12/21 03:31:57;;;;;;;970.42;881.17;;;9.10;99.90;;;;;;6303454;22;20014;-83
2023/12/21 03:34:23;;;;;;;1034.78;931.53;;;9.00;99.90;;;;;;6302470;22;20007;-83
2023/12/21 03:36:49;;;;;;;1007.85;908.92;;;9.00;99.90;;;;;;6300932;22;20101;-83
2023/12/21 03:39:15;;;;;;;1101.18;939.10;;;9.10;99.90;;;;;;6303017;22;20026;-83
2023/12/21 03:41:40;;;;;;;1044.20;934.65;;;9.00;99.90;;;;;;6302089;22;20033;-83
2023/12/21 03:44:06;;;;;;;967.28;878.42;;;9.10;99.90;;;;;;6302506;22;20119;-83
2023/12/21 03:46:31;;;;;;;964.05;874.95;;;9.00;99.90;;;;;;6301559;22;20488;-83
2023/12/21 03:48:57;;;;;;;1047.18;936.00;;;9.00;99.90;;;;;;6303711;22;20014;-83
2023/12/21 03:51:23;;;;;;;1055.65;943.95;;;9.00;99.90;;;;;;6300879;22;20463;-83
2023/12/21 03:53:48;;;;;;;1079.82;948.28;;;9.10;99.90;;;;;;6302318;22;20446;-84
2023/12/21 03:56:14;;;;;;;976.28;879.28;;;9.00;99.90;;;;;;6277124;22;20023;-83
2023/12/21 03:58:40;;;;;;;920.53;839.77;;;9.00;99.90;;;;;;6224006;22;1085968;-83
2023/12/21 04:01:07;;;;;;;914.70;832.63;;;9.10;99.90;;;;;;6298910;22;20246;-83
2023/12/21 04:03:33;;;;;;;950.70;861.30;;;9.10;99.90;;;;;;6273275;22;20478;-83
2023/12/21 04:05:59;;;;;;;1055.63;942.75;;;9.10;99.90;;;;;;6296621;22;20015;-83
2023/12/21 04:08:25;;;;;;;1079.10;956.75;;;9.00;99.90;;;;;;6298944;22;20027;-83
2023/12/21 04:10:50;;;;;;;970.83;879.33;;;9.00;99.90;;;;;;6271573;22;20015;-83
2023/12/21 04:13:16;;;;;;;1084.88;907.75;;;9.10;99.90;;;;;;6298807;22;20034;-83
2023/12/21 04:15:42;;;;;;;1004.45;907.20;;;9.00;99.90;;;;;;6272824;22;20031;-83
2023/12/21 04:18:07;;;;;;;857.95;787.35;;;9.10;99.90;;;;;;6272179;22;20015;-83
2023/12/21 04:20:33;;;;;;;1104.95;970.97;;;9.10;99.90;;;;;;6297559;22;20451;-83
2023/12/21 04:22:59;;;;;;;1070.20;954.72;;;9.00;99.90;;;;;;6298922;22;20007;-84
2023/12/21 04:25:25;;;;;;;1080.47;960.45;;;9.10;99.90;;;;;;6271806;22;20029;-83
2023/12/21 04:27:50;;;;;;;1034.50;928.80;;;9.10;99.90;;;;;;6273414;22;20051;-84
2023/12/21 04:30:16;;;;;;;986.53;890.53;;;9.00;99.90;;;;;;6297941;22;20016;-83
2023/12/21 04:32:42;;;;;;;887.95;807.28;;;9.00;99.90;;;;;;6272091;22;20474;-83
2023/12/21 04:35:10;;;;;;;993.25;898.50;;;9.00;99.90;;;;;;6297316;22;20027;-84
2023/12/21 04:37:35;;;;;;;1006.15;906.78;;;9.00;99.90;;;;;;6298926;22;20443;-84
2023/12/21 04:40:02;;;;;;;1099.88;979.45;;;9.00;99.90;;;;;;6297836;22;20073;-84
2023/12/21 04:42:29;;;;;;;892.90;814.45;;;9.00;99.90;;;;;;6298049;22;20100;-84
2023/12/21 04:44:54;;;;;;;994.05;893.65;;;9.00;99.90;;;;;;6298609;22;20130;-83
2023/12/21 04:47:20;;;;;;;959.78;869.22;;;9.00;99.90;;;;;;6297242;22;20015;-84
2023/12/21 04:49:46;;;;;;;975.03;878.20;;;9.00;99.90;;;;;;6271600;22;20090;-83
2023/12/21 04:52:12;;;;;;;986.22;886.75;;;9.00;99.90;;;;;;6298702;22;20019;-84
2023/12/21 04:54:39;;;;;;;992.42;896.47;;;8.90;99.90;;;;;;6271230;22;20061;-84
2023/12/21 04:57:04;;;;;;;995.35;899.17;;;9.00;99.90;;;;;;6273194;22;20023;-84
2023/12/21 04:59:30;;;;;;;957.03;869.47;;;8.90;99.90;;;;;;6297274;22;20030;-84
2023/12/21 05:01:56;;;;;;;1075.70;953.83;;;8.90;99.90;;;;;;6298087;22;20046;-84
2023/12/21 05:04:23;;;;;;;1013.53;911.72;;;9.00;99.90;;;;;;6298306;22;20094;-84
2023/12/21 05:06:48;;;;;;;962.60;871.90;;;8.90;99.90;;;;;;6297217;22;20026;-84
2023/12/21 05:09:14;;;;;;;989.28;895.38;;;9.00;99.90;;;;;;6271801;22;20027;-84
2023/12/21 05:11:40;;;;;;;908.55;829.28;;;8.90;99.90;;;;;;6272159;22;20416;-83
2023/12/21 05:14:05;;;;;;;1008.28;905.50;;;9.00;99.90;;;;;;6272151;22;20011;-83
2023/12/21 05:16:31;;;;;;;1023.67;917.10;;;9.00;99.90;;;;;;6297742;22;20019;-84
2023/12/21 05:18:57;;;;;;;993.13;900.33;;;8.90;99.90;;;;;;6272453;22;20091;-83
2023/12/21 05:21:23;;;;;;;1061.53;944.80;;;9.10;99.90;;;;;;6271670;22;20033;-83
2023/12/21 05:23:49;;;;;;;1004.55;902.50;;;9.00;99.90;;;;;;6274045;22;20019;-84
2023/12/21 05:26:15;;;;;;;1071.95;959.58;;;9.00;99.90;;;;;;6300039;22;20325;-83
2023/12/21 05:28:42;;;;;;;1061.28;948.53;;;9.00;99.90;;;;;;6299807;22;20015;-84
2023/12/21 05:31:09;;;;;;;1043.93;927.50;;;9.00;99.90;;;;;;6274652;22;20019;-84
2023/12/21 05:33:35;;;;;;;1019.17;915.05;;;9.10;99.90;;;;;;6300380;22;20024;-83
2023/12/21 05:36:02;;;;;;;1030.18;926.83;;;9.10;99.90;;;;;;6298500;22;20054;-84
2023/12/21 05:38:28;;;;;;;1051.20;937.17;;;9.10;99.90;;;;;;6274117;22;20090;-84
2023/12/21 05:40:54;;;;;;;1042.65;930.50;;;9.10;99.90;;;;;;6274631;22;20084;-83
2023/12/21 05:43:19;;;;;;;1035.95;929.05;;;9.00;99.90;;;;;;6299020;22;20463;-83
2023/12/21 05:45:45;;;;;;;1018.58;912.25;;;9.00;99.90;;;;;;6274313;22;20411;-84
2023/12/21 05:48:11;;;;;;;1003.75;904.67;;;9.00;99.90;;;;;;6273609;22;20430;-83
2023/12/21 05:50:37;;;;;;;1093.22;967.92;;;9.10;99.90;;;;;;6298306;22;20109;-84
2023/12/21 05:53:03;;;;;;;952.75;862.70;;;9.10;99.90;;;;;;6299907;22;20023;-84
2023/12/21 05:55:29;;;;;;;1030.97;924.10;;;9.10;99.90;;;;;;6299975;22;20343;-84
2023/12/21 05:57:55;;;;;;;912.08;829.50;;;9.10;99.90;;;;;;6274809;22;20047;-83
2023/12/21 06:00:20;;;;;;;1052.80;941.97;;;9.10;99.90;;;;;;6278637;22;20023;-83
2023/12/21 06:02:47;;;;;;;1024.13;921.22;;;9.10;99.90;;;;;;6279734;22;20019;-84
2023/12/21 06:05:13;;;;;;;983.50;892.45;;;9.10;99.90;;;;;;6277063;22;20026;-83
2023/12/21 06:07:38;;;;;;;959.80;874.65;;;9.10;99.90;;;;;;6305341;22;20019;-84
2023/12/21 06:10:05;;;;;;;1257.70;999.90;;;9.20;99.90;;;;;;6305419;22;20137;-83
2023/12/21 06:12:30;;;;;;;906.97;828.70;;;9.10;99.90;;;;;;6303380;22;20042;-83
2023/12/21 06:14:56;;;;;;;1054.90;939.75;;;9.10;99.90;;;;;;6305287;22;20025;-83
2023/12/21 06:17:22;;;;;;;1137.80;944.38;;;9.10;99.90;;;;;;6277736;22;20018;-84
2023/12/21 06:19:47;;;;;;;1026.78;925.50;;;9.10;99.90;;;;;;6303753;22;20019;-84
2023/12/21 06:22:14;;;;;;;1170.03;996.47;;;9.10;99.90;;;;;;6305056;22;20018;-84
2023/12/21 06:24:40;;;;;;;946.13;858.80;;;9.10;99.90;;;;;;6303504;22;20014;-84
2023/12/21 06:27:05;;;;;;;1124.57;953.30;;;9.10;99.90;;;;;;6305499;22;20029;-83
2023/12/21 06:29:31;;;;;;;1192.80;984.70;;;9.20;99.90;;;;;;6304483;22;20027;-84
2023/12/21 06:31:57;;;;;;;1069.82;934.25;;;9.20;99.90;;;;;;6304628;22;20014;-83
2023/12/21 06:34:25;;;;;;;949.05;856.22;;;9.20;99.90;;;;;;6279193;22;20517;-84
2023/12/21 06:36:51;;;;;;;939.55;848.67;;;9.20;99.90;;;;;;6303966;22;20022;-84
2023/12/21 06:39:17;;;;;;;1190.70;982.78;;;9.20;99.90;;;;;;6304176;22;20011;-83
2023/12/21 06:41:44;;;;;;;1029.70;923.50;;;9.30;99.90;;;;;;6278657;22;20061;-83
2023/12/21 06:44:10;;;;;;;1084.03;926.03;;;9.30;99.90;;;;;;6304844;22;20011;-83
2023/12/21 06:46:36;;;;;;;1078.32;962.45;;;9.30;99.90;;;;;;6277469;22;20015;-83
2023/12/21 06:49:02;;;;;;;1193.97;992.38;;;9.30;99.90;;;;;;6305297;22;20021;-83
2023/12/21 06:51:28;;;;;;;1006.45;908.75;;;9.30;99.90;;;;;;6302842;22;20023;-83
2023/12/21 06:53:53;;;;;;;1319.93;999.90;;;9.20;99.90;;;;;;6278310;22;20023;-83
2023/12/21 06:56:19;;;;;;;1203.05;996.40;;;9.30;99.90;;;;;;6304313;22;20093;-82
2023/12/21 06:58:45;;;;;;;953.35;862.92;;;9.30;99.90;;;;;;6304498;22;20574;-82
2023/12/21 07:01:11;;;;;;;1032.35;914.38;;;9.30;99.90;;;;;;6303033;22;20015;-82
2023/12/21 07:03:37;;;;;;;1080.72;962.83;;;9.30;99.90;;;;;;6278929;22;20447;-82
2023/12/21 07:06:03;;;;;;;1052.38;941.60;;;9.30;99.90;;;;;;6303039;22;20026;-83
2023/12/21 07:08:29;;;;;;;1128.22;982.40;;;9.30;99.90;;;;;;6303424;22;20446;-82
2023/12/21 07:10:54;;;;;;;1187.07;999.90;;;9.20;99.90;;;;;;6304716;22;20397;-83
2023/12/21 07:13:20;;;;;;;1007.13;907.13;;;9.20;99.90;;;;;;6304476;22;20050;-82
2023/12/21 07:15:46;;;;;;;1021.75;915.17;;;9.20;99.90;;;;;;6303138;22;20106;-82
2023/12/21 07:18:12;;;;;;;1592.65;999.90;;;9.20;99.90;;;;;;6304030;22;20026;-82
2023/12/21 07:20:37;;;;;;;1261.43;994.38;;;9.30;99.90;;;;;;6302209;22;20015;-82
2023/12/21 07:23:03;;;;;;;1255.72;990.45;;;9.10;99.90;;;;;;6304863;22;20335;-83
2023/12/21 07:25:29;;;;;;;1204.45;998.00;;;9.20;99.90;;;;;;6303123;22;20015;-82
2023/12/21 07:27:55;;;;;;;1080.75;966.00;;;9.20;99.90;;;;;;6304333;22;20508;-83
2023/12/21 07:30:20;;;;;;;1048.93;936.42;;;9.20;99.90;;;;;;6303529;22;20015;-82
2023/12/21 07:32:46;;;;;;;996.50;900.10;;;9.20;99.90;;;;;;6304350;22;20034;-83
2023/12/21 07:35:12;;;;;;;929.72;843.78;;;9.20;99.90;;;;;;6302231;22;20112;-82
2023/12/21 07:37:38;;;;;;;957.42;868.30;;;9.10;99.90;;;;;;6304043;22;20026;-83
2023/12/21 07:40:04;;;;;;;947.70;859.13;;;9.20;99.90;;;;;;6303628;22;20340;-82
2023/12/21 07:42:30;;;;;;;915.92;832.53;;;9.30;99.90;;;;;;6274688;22;20022;-83
2023/12/21 07:44:55;;;;;;;1039.53;931.40;;;9.20;99.90;;;;;;6301697;22;20014;-84
2023/12/21 07:47:22;;;;;;;1201.10;950.03;;;9.20;99.90;;;;;;6302151;22;20582;-83
2023/12/21 07:49:48;;;;;;;1043.07;936.60;;;9.20;99.90;;;;;;6300107;22;20071;-83
2023/12/21 07:52:13;;;;;;;1016.40;911.63;;;9.30;99.90;;;;;;6303028;22;20047;-83
2023/12/21 07:54:39;;;;;;;952.38;865.42;;;9.20;99.90;;;;;;6301640;22;20014;-83
2023/12/21 07:57:05;;;;;;;927.33;844.78;;;9.30;99.90;;;;;;6328135;22;20026;-83
2023/12/21 07:59:30;;;;;;;1003.88;903.72;;;9.30;99.90;;;;;;6301828;22;20019;-83
2023/12/21 08:01:56;;;;;;;1081.88;957.42;;;9.30;99.90;;;;;;6302659;22;20029;-83
2023/12/21 08:04:22;;;;;;;949.85;861.40;;;9.20;99.90;;;;;;6302146;22;20068;-84
2023/12/21 08:06:47;;;;;;;1106.30;986.60;;;9.40;99.90;;;;;;6301055;22;20021;-85
2023/12/21 08:09:14;;;;;;;975.20;872.85;;;9.40;99.90;;;;;;6302996;22;20434;-85
2023/12/21 08:11:41;;;;;;;956.67;870.90;;;9.30;99.90;;;;;;6302923;22;20018;-84
2023/12/21 08:14:07;;;;;;;1083.03;947.10;;;9.30;99.90;;;;;;6303922;22;20617;-85
2023/12/21 08:16:32;;;;;;;942.83;857.10;;;9.30;99.90;;;;;;6303332;22;20023;-83
2023/12/21 08:18:58;;;;;;;940.10;855.17;;;9.40;99.90;;;;;;6302902;22;20019;-85
2023/12/21 08:21:24;;;;;;;1013.90;907.22;;;9.40;99.90;;;;;;6302702;22;20041;-88
2023/12/21 08:23:50;;;;;;;997.20;895.97;;;9.40;99.90;;;;;;6303550;22;20030;-84
2023/12/21 08:26:16;;;;;;;972.15;880.47;;;9.30;99.90;;;;;;6302443;22;20095;-84
2023/12/21 08:28:42;;;;;;;969.28;881.00;;;9.40;99.90;;;;;;6303100;22;20026;-84
2023/12/21 08:31:08;;;;;;;1031.82;920.92;;;9.40;99.90;;;;;;6301374;22;20014;-85
2023/12/21 08:33:35;;;;;;;983.53;887.65;;;9.40;99.90;;;;;;6303383;22;20090;-84
2023/12/21 08:36:01;;;;;;;1400.40;999.90;;;9.20;99.90;;;;;;6302688;22;20021;-85
2023/12/21 08:38:27;;;;;;;969.35;877.33;;;9.40;99.90;;;;;;6301654;22;20216;-82
2023/12/21 08:40:53;;;;;;;1061.80;945.97;;;9.50;99.90;;;;;;6302931;22;20022;-83
2023/12/21 08:43:18;;;;;;;881.15;805.33;;;9.50;99.90;;;;;;6302015;22;20447;-84
2023/12/21 08:45:44;;;;;;;1005.90;897.60;;;9.60;99.90;;;;;;6301444;22;20045;-83
2023/12/21 08:48:10;;;;;;;891.67;814.58;;;9.60;99.90;;;;;;6302065;22;20087;-84
2023/12/21 08:50:36;;;;;;;1016.55;907.35;;;9.50;99.90;;;;;;6301865;22;20445;-83
2023/12/21 08:53:03;;;;;;;953.60;864.42;;;9.50;99.90;;;;;;6300972;22;20014;-83
2023/12/21 08:55:29;;;;;;;999.67;896.25;;;9.60;99.90;;;;;;6301002;22;20022;-83
2023/12/21 08:57:57;;;;;;;1245.18;994.65;;;9.70;99.90;;;;;;6302754;22;20127;-84
2023/12/21 09:00:23;;;;;;;1386.13;994.05;;;9.60;99.90;;;;;;6301361;22;20458;-86
2023/12/21 09:02:48;;;;;;;964.15;872.83;;;9.70;99.90;;;;;;6302980;22;20087;-83
2023/12/21 09:05:14;;;;;;;949.80;855.70;;;9.70;99.90;;;;;;6275416;22;20218;-84
2023/12/21 09:07:40;;;;;;;928.55;845.20;;;9.80;99.90;;;;;;6301426;22;20023;-83
2023/12/21 09:10:06;;;;;;;972.03;872.63;;;9.70;99.90;;;;;;6302082;22;20041;-83
2023/12/21 09:12:32;;;;;;;1060.22;932.58;;;9.80;99.90;;;;;;6276186;22;20075;-84
2023/12/21 09:14:58;;;;;;;1065.45;895.03;;;9.80;99.90;;;;;;6301024;22;20010;-84
2023/12/21 09:17:24;;;;;;;1025.72;914.05;;;9.80;99.90;;;;;;6276755;22;20018;-84
2023/12/21 09:19:49;;;;;;;926.10;841.40;;;10.00;99.90;;;;;;6300996;22;20738;-83
2023/12/21 09:22:15;;;;;;;942.15;855.40;;;9.90;99.90;;;;;;6301817;22;20338;-84
2023/12/21 09:24:41;;;;;;;1048.50;937.80;;;9.90;99.90;;;;;;6301698;22;20033;-84
2023/12/21 09:27:07;;;;;;;1059.00;944.95;;;9.90;99.90;;;;;;6302676;22;20014;-83
2023/12/21 09:29:32;;;;;;;1314.25;987.63;;;10.00;99.90;;;;;;6275940;22;20022;-84
2023/12/21 09:31:59;;;;;;;873.35;799.10;;;10.00;99.90;;;;;;6302388;22;20023;-83
2023/12/21 09:34:25;;;;;;;1127.53;954.83;;;9.90;99.90;;;;;;6301609;22;20037;-84
2023/12/21 09:36:53;;;;;;;1564.47;999.90;;;10.10;99.90;;;;;;6301463;22;20019;-85
2023/12/21 09:39:19;;;;;;;972.03;878.38;;;10.10;99.90;;;;;;6302415;22;20015;-84
2023/12/21 09:41:45;;;;;;;939.00;850.65;;;10.10;99.90;;;;;;6301268;22;20019;-85
2023/12/21 09:44:16;;;;;;;1152.63;936.63;;;10.20;99.90;;;;;;6302180;22;20025;-83
2023/12/21 09:46:44;;;;;;;1211.13;958.80;;;10.20;99.90;;;;;;6301913;22;20065;-83
2023/12/21 09:49:13;;;;;;;1212.05;965.95;;;10.20;99.90;;;;;;6301829;22;20010;-83
2023/12/21 09:51:38;;;;;;;942.75;854.22;;;10.30;99.90;;;;;;6301302;22;20019;-84
2023/12/21 09:54:07;;;;;;;865.60;791.65;;;10.20;99.90;;;;;;6302673;22;20011;-84
2023/12/21 09:56:33;;;;;;;1018.83;908.10;;;10.30;99.90;;;;;;6301437;22;20063;-83
2023/12/21 09:59:00;;;;;;;932.40;843.55;;;10.30;99.90;;;;;;6302117;22;20166;-83
2023/12/21 10:01:26;;;;;;;1273.47;997.92;;;10.30;99.90;;;;;;6301414;22;20019;-83
2023/12/21 10:03:53;;;;;;;970.67;869.40;;;10.30;99.90;;;;;;6301774;22;20125;-84
2023/12/21 10:06:18;;;;;;;955.40;865.30;;;10.30;99.90;;;;;;6301050;22;20019;-83
2023/12/21 10:08:44;;;;;;;978.33;877.75;;;10.30;99.90;;;;;;6304502;22;20061;-84
2023/12/21 10:11:10;;;;;;;1070.85;934.50;;;10.30;99.90;;;;;;6302546;22;20053;-82
2023/12/21 10:13:37;;;;;;;1531.00;996.70;;;10.30;99.90;;;;;;6304275;22;20094;-83
2023/12/21 10:16:04;;;;;;;928.38;838.28;;;10.20;99.90;;;;;;6303569;22;20026;-82
2023/12/21 10:18:30;;;;;;;932.22;836.30;;;10.20;99.90;;;;;;6302906;22;20018;-83
2023/12/21 10:20:56;;;;;;;995.22;888.92;;;10.30;99.90;;;;;;6277011;22;20042;-83
2023/12/21 10:23:24;;;;;;;899.80;814.03;;;10.30;99.90;;;;;;6278369;22;20022;-83
2023/12/21 10:25:52;;;;;;;1101.82;929.75;;;10.40;99.90;;;;;;6277565;22;20015;-84
2023/12/21 10:28:22;;;;;;;957.08;861.42;;;10.50;99.90;;;;;;6304191;22;20014;-84
2023/12/21 10:30:54;;;;;;;911.42;823.30;;;10.60;99.90;;;;;;6302861;22;20019;-83
2023/12/21 10:33:19;;;;;;;1018.85;910.10;;;10.70;99.90;;;;;;6304014;22;20339;-83
2023/12/21 10:35:45;;;;;;;1408.85;999.90;;;10.70;99.90;;;;;;6302598;22;20026;-84
2023/12/21 10:38:11;;;;;;;871.33;796.42;;;10.70;99.90;;;;;;6303052;22;20022;-83
2023/12/21 10:40:36;;;;;;;1041.40;891.05;;;10.60;99.90;;;;;;6303569;22;20048;-83
2023/12/21 10:43:03;;;;;;;931.05;839.70;;;10.60;99.90;;;;;;6304242;22;20223;-84
2023/12/21 10:45:29;;;;;;;1389.20;996.65;;;10.60;99.90;;;;;;6302406;22;20461;-84
2023/12/21 10:47:56;;;;;;;1151.30;971.55;;;10.60;99.90;;;;;;6304691;22;20015;-84
2023/12/21 10:50:25;;;;;;;1021.38;903.28;;;10.60;99.90;;;;;;6276524;22;20458;-84
2023/12/21 10:52:52;;;;;;;1398.97;967.83;;;10.60;99.90;;;;;;6303209;22;20011;-85
2023/12/21 10:55:18;;;;;;;996.63;889.60;;;10.70;99.90;;;;;;6302911;22;20019;-83
2023/12/21 10:57:46;;;;;;;926.40;842.47;;;10.70;99.90;;;;;;6303857;22;20339;-83
2023/12/21 11:00:15;;;;;;;823.08;749.83;;;10.80;99.90;;;;;;6301745;22;20015;-83
2023/12/21 11:02:45;;;;;;;997.30;892.20;;;10.80;99.90;;;;;;6278015;22;20018;-84
2023/12/21 11:05:11;;;;;;;749.58;690.05;;;10.80;99.90;;;;;;6276054;22;20458;-83
2023/12/21 11:07:38;;;;;;;814.20;745.17;;;10.80;99.90;;;;;;6276924;22;20011;-82
2023/12/21 11:10:05;;;;;;;852.40;778.92;;;10.70;99.90;;;;;;6303548;22;20022;-82
2023/12/21 11:12:31;;;;;;;864.17;790.25;;;10.60;99.90;;;;;;6303272;22;20015;-82
2023/12/21 11:14:57;;;;;;;943.22;850.50;;;10.50;99.90;;;;;;6302407;22;20025;-82
2023/12/21 11:17:24;;;;;;;979.20;864.20;;;10.50;99.90;;;;;;6304055;22;20014;-83
2023/12/21 11:19:51;;;;;;;957.40;866.88;;;10.60;99.90;;;;;;6301377;22;20703;-83
2023/12/21 11:22:18;;;;;;;903.28;812.70;;;10.60;99.90;;;;;;6277737;22;20098;-82
2023/12/21 11:24:44;;;;;;;946.42;856.22;;;10.60;99.90;;;;;;6304002;22;20037;-82
2023/12/21 11:27:12;;;;;;;1151.90;931.80;;;10.70;99.90;;;;;;6302547;22;20079;-82
2023/12/21 11:29:38;;;;;;;916.42;827.75;;;10.60;99.90;;;;;;6277873;22;20388;-82
2023/12/21 11:32:06;;;;;;;968.55;863.22;;;10.60;99.90;;;;;;6303527;22;20099;-83
2023/12/21 11:34:37;;;;;;;1018.67;907.92;;;10.70;99.90;;;;;;6301851;22;20030;-82
2023/12/21 11:37:23;;;;;;;842.05;769.60;;;10.70;99.90;;;;;;6303091;22;20430;-83
2023/12/21 11:39:52;;;;;;;748.67;688.20;;;10.80;99.90;;;;;;6302378;22;20029;-83
2023/12/21 11:42:20;;;;;;;882.35;787.30;;;10.80;99.90;;;;;;6302806;22;20010;-83
2023/12/21 11:44:49;;;;;;;654.22;604.15;;;10.80;99.90;;;;;;6276646;22;20499;-83
2023/12/21 11:47:16;;;;;;;942.92;852.72;;;10.80;99.90;;;;;;6277240;22;20506;-83
2023/12/21 11:49:42;;;;;;;948.53;845.33;;;10.80;99.90;;;;;;6300816;22;20337;-84
2023/12/21 11:52:09;;;;;;;735.83;672.72;;;10.80;99.90;;;;;;6278273;22;20415;-84
2023/12/21 11:54:35;;;;;;;953.20;852.20;;;10.80;99.90;;;;;;6302593;22;20361;-84
2023/12/21 11:57:12;;;;;;;698.75;642.83;;;10.80;99.90;;;;;;6302720;22;20018;-83
2023/12/21 11:59:38;;;;;;;1140.28;876.38;;;10.80;99.90;;;;;;6301856;22;20050;-83
2023/12/21 12:02:06;;;;;;;1055.50;768.60;;;10.80;99.90;;;;;;6302652;22;20027;-82
2023/12/21 12:04:32;;;;;;;958.17;854.28;;;10.90;99.90;;;;;;6301607;22;20061;-84